Time;durP1;ratioP1;P1;durP2;ratioP2;P2;SDS_P1;SDS_P2;PMS_P1;PMS_P2;Temp;Humidity;BMP_temperature;BMP_pressure;BME280_temperature;BME280_humidity;BME280_pressure;Samples;Min_cycle;Max_cycle;Signal;HPM_P1;HPM_P2
2023/05/08 00:01:47;;;;;;;12.32;9.93;;;;;;;;;;4985158;28;20062;-82
2023/05/08 00:04:13;;;;;;;10.73;9.63;;;;;;;;;;4986340;28;20041;-81
2023/05/08 00:06:39;;;;;;;10.55;9.45;;;;;;;;;;4987368;28;20026;-82
2023/05/08 00:09:05;;;;;;;11.40;8.98;;;;;;;;;;4987842;28;20031;-80
2023/05/08 00:11:31;;;;;;;11.63;10.43;;;;;;;;;;4989260;28;20639;-81
2023/05/08 00:13:57;;;;;;;19.02;10.63;;;;;;;;;;4989938;28;20034;-80
2023/05/08 00:16:23;;;;;;;14.40;9.52;;;;;;;;;;4987190;28;20237;-80
2023/05/08 00:18:49;;;;;;;10.18;9.20;;;;;;;;;;4985443;28;20494;-81
2023/05/08 00:21:15;;;;;;;10.25;9.13;;;;;;;;;;4987766;28;20039;-81
2023/05/08 00:23:41;;;;;;;10.85;9.73;;;;;;;;;;4988603;28;20110;-81
2023/05/08 00:26:07;;;;;;;12.70;10.18;;;;;;;;;;4987819;28;20054;-78
2023/05/08 00:28:33;;;;;;;11.07;9.48;;;;;;;;;;4959009;28;20066;-81
2023/05/08 00:31:03;;;;;;;11.35;10.13;;;;;;;;;;4985460;28;20038;-79
2023/05/08 00:33:29;;;;;;;10.65;9.55;;;;;;;;;;4972949;28;20507;-79
2023/05/08 00:35:59;;;;;;;12.13;10.07;;;;;;;;;;4986463;28;20557;-79
2023/05/08 00:38:25;;;;;;;12.02;9.80;;;;;;;;;;4984497;28;20037;-80
2023/05/08 00:40:51;;;;;;;12.13;10.27;;;;;;;;;;4971334;28;20088;-80
2023/05/08 00:43:18;;;;;;;13.85;10.15;;;;;;;;;;4988636;28;20038;-80
2023/05/08 00:45:45;;;;;;;12.43;10.63;;;;;;;;;;4989984;28;20026;-80
2023/05/08 00:48:11;;;;;;;12.25;10.23;;;;;;;;;;4984329;28;20121;-79
2023/05/08 00:50:37;;;;;;;15.38;11.25;;;;;;;;;;4972839;28;20465;-80
2023/05/08 00:53:03;;;;;;;14.65;10.52;;;;;;;;;;4987106;28;20022;-80
2023/05/08 00:55:30;;;;;;;14.60;11.07;;;;;;;;;;4972385;28;20030;-80
2023/05/08 00:57:58;;;;;;;14.95;11.52;;;;;;;;;;4986052;28;20041;-81
2023/05/08 01:00:24;;;;;;;13.85;11.43;;;;;;;;;;4969817;28;20038;-81
2023/05/08 01:02:50;;;;;;;14.63;10.93;;;;;;;;;;4985475;28;20039;-81
2023/05/08 01:05:16;;;;;;;17.17;11.95;;;;;;;;;;4986062;28;20041;-80
2023/05/08 01:07:42;;;;;;;14.32;10.95;;;;;;;;;;4985025;28;20054;-82
2023/05/08 01:10:08;;;;;;;13.10;11.23;;;;;;;;;;4986207;28;20064;-81
2023/05/08 01:12:37;;;;;;;13.90;11.35;;;;;;;;;;4969432;28;20073;-80
2023/05/08 01:15:13;;;;;;;13.30;11.60;;;;;;;;;;4987755;28;20108;-81
2023/05/08 01:17:48;;;;;;;17.35;11.88;;;;;;;;;;4985967;28;20038;-82
2023/05/08 01:20:25;;;;;;;13.00;11.68;;;;;;;;;;4983697;28;20022;-81
2023/05/08 01:23:10;;;;;;;12.88;11.57;;;;;;;;;;4987807;28;20041;-80
2023/05/08 01:25:55;;;;;;;13.50;11.95;;;;;;;;;;4986643;28;20058;-81
2023/05/08 01:28:40;;;;;;;12.73;11.35;;;;;;;;;;4970637;28;20594;-81
2023/05/08 01:31:25;;;;;;;13.63;12.10;;;;;;;;;;4986998;28;20034;-80
2023/05/08 01:34:11;;;;;;;14.50;12.52;;;;;;;;;;4982968;28;20539;-81
2023/05/08 01:36:43;;;;;;;12.50;11.20;;;;;;;;;;4986328;28;20145;-82
2023/05/08 01:39:10;;;;;;;13.10;11.80;;;;;;;;;;4983789;28;20520;-82
2023/05/08 01:41:37;;;;;;;14.57;12.50;;;;;;;;;;4983264;28;20645;-82
2023/05/08 01:44:09;;;;;;;14.68;12.60;;;;;;;;;;4983361;28;20038;-82
2023/05/08 01:46:35;;;;;;;13.30;11.63;;;;;;;;;;4971572;28;20515;-81
2023/05/08 01:49:04;;;;;;;15.48;12.55;;;;;;;;;;4983524;28;20126;-81
2023/05/08 01:51:35;;;;;;;15.82;13.07;;;;;;;;;;4987164;28;20481;-80
2023/05/08 01:54:04;;;;;;;15.88;13.45;;;;;;;;;;4984020;28;20105;-81
2023/05/08 01:56:31;;;;;;;15.32;13.00;;;;;;;;;;4985231;28;20061;-81
2023/05/08 01:58:58;;;;;;;13.98;12.48;;;;;;;;;;4986078;28;20030;-81
2023/05/08 02:01:25;;;;;;;14.02;12.52;;;;;;;;;;4987150;28;20035;-82
2023/05/08 02:03:52;;;;;;;15.05;13.45;;;;;;;;;;4982513;28;20035;-81
2023/05/08 02:06:19;;;;;;;16.90;11.82;;;;;;;;;;4984537;28;20038;-82
2023/05/08 02:08:46;;;;;;;15.23;11.95;;;;;;;;;;4966852;28;20084;-81
2023/05/08 02:11:14;;;;;;;16.10;12.38;;;;;;;;;;4952905;28;20443;-81
2023/05/08 02:13:41;;;;;;;15.45;12.77;;;;;;;;;;4986030;28;20072;-81
2023/05/08 02:16:08;;;;;;;15.25;13.30;;;;;;;;;;4969788;28;20022;-78
2023/05/08 02:18:35;;;;;;;15.43;13.70;;;;;;;;;;4987115;28;20510;-80
2023/05/08 02:21:03;;;;;;;15.45;13.38;;;;;;;;;;4986955;28;20722;-81
2023/05/08 02:23:30;;;;;;;15.80;13.07;;;;;;;;;;4981678;28;20035;-80
2023/05/08 02:25:56;;;;;;;14.43;12.68;;;;;;;;;;4986917;28;20050;-80
2023/05/08 02:28:23;;;;;;;15.15;13.48;;;;;;;;;;4986506;28;20646;-81
2023/05/08 02:30:50;;;;;;;16.25;13.32;;;;;;;;;;4989450;28;20049;-80
2023/05/08 02:33:17;;;;;;;14.95;13.38;;;;;;;;;;4983809;28;20038;-81
2023/05/08 02:35:44;;;;;;;15.90;12.32;;;;;;;;;;4986245;28;20724;-81
2023/05/08 02:38:11;;;;;;;15.52;13.48;;;;;;;;;;4983194;28;20085;-82
2023/05/08 02:40:39;;;;;;;16.05;12.85;;;;;;;;;;4987393;28;20026;-81
2023/05/08 02:43:06;;;;;;;16.48;12.88;;;;;;;;;;4983369;28;20084;-81
2023/05/08 02:45:45;;;;;;;14.07;12.23;;;;;;;;;;4972890;28;20386;-80
2023/05/08 02:48:14;;;;;;;20.17;13.30;;;;;;;;;;4972832;28;20065;-79
2023/05/08 02:50:59;;;;;;;14.18;12.68;;;;;;;;;;4985347;28;20031;-80
2023/05/08 02:53:29;;;;;;;15.77;13.55;;;;;;;;;;4985562;28;20038;-80
2023/05/08 02:55:59;;;;;;;17.35;14.90;;;;;;;;;;4985705;28;20026;-78
2023/05/08 02:58:30;;;;;;;15.23;13.63;;;;;;;;;;4961721;28;20038;-80
2023/05/08 03:01:18;;;;;;;14.98;13.27;;;;;;;;;;4988234;28;20026;-80
2023/05/08 03:03:46;;;;;;;14.77;12.35;;;;;;;;;;4975268;28;20030;-80
2023/05/08 03:06:13;;;;;;;16.98;13.43;;;;;;;;;;4984737;28;20045;-82
2023/05/08 03:08:40;;;;;;;14.55;13.00;;;;;;;;;;4966659;28;20383;-81
2023/05/08 03:11:11;;;;;;;15.77;14.05;;;;;;;;;;4985054;28;20039;-81
2023/05/08 03:13:39;;;;;;;17.05;13.00;;;;;;;;;;4978032;28;20043;-81
2023/05/08 03:16:05;;;;;;;15.57;13.55;;;;;;;;;;4981766;28;20026;-81
2023/05/08 03:18:34;;;;;;;14.57;13.07;;;;;;;;;;4982599;28;20043;-80
2023/05/08 03:21:01;;;;;;;14.70;13.15;;;;;;;;;;4988036;28;20038;-80
2023/05/08 03:23:32;;;;;;;15.00;13.40;;;;;;;;;;4982129;28;20393;-80
2023/05/08 03:26:00;;;;;;;16.50;13.93;;;;;;;;;;4968995;28;20034;-79
2023/05/08 03:28:27;;;;;;;15.35;13.50;;;;;;;;;;4985319;28;20030;-80
2023/05/08 03:30:53;;;;;;;15.32;13.25;;;;;;;;;;4979482;28;20733;-78
2023/05/08 03:33:21;;;;;;;14.73;12.85;;;;;;;;;;4979614;28;20126;-80
2023/05/08 03:35:47;;;;;;;13.90;12.50;;;;;;;;;;4977741;28;21338;-82
2023/05/08 03:38:14;;;;;;;15.73;12.70;;;;;;;;;;4959078;28;20026;-75
2023/05/08 03:40:43;;;;;;;16.27;14.05;;;;;;;;;;4959339;28;20026;-76
2023/05/08 03:43:09;;;;;;;38.42;26.38;;;;;;;;;;4975572;28;20042;-77
2023/05/08 03:45:36;;;;;;;23.45;18.75;;;;;;;;;;4980420;28;20045;-80
2023/05/08 03:48:04;;;;;;;18.83;14.82;;;;;;;;;;4975478;28;20082;-80
2023/05/08 03:50:31;;;;;;;15.65;13.38;;;;;;;;;;4977322;28;21396;-79
2023/05/08 03:52:58;;;;;;;19.00;13.77;;;;;;;;;;4972224;28;20248;-79
2023/05/08 03:55:24;;;;;;;15.07;13.20;;;;;;;;;;4979371;28;20125;-81
2023/05/08 03:57:53;;;;;;;16.08;14.38;;;;;;;;;;4981442;28;20323;-78
2023/05/08 04:00:28;;;;;;;16.42;13.68;;;;;;;;;;4982777;28;20435;-81
2023/05/08 04:03:04;;;;;;;16.33;13.55;;;;;;;;;;4990793;28;20038;-78
2023/05/08 04:05:41;;;;;;;16.15;14.15;;;;;;;;;;4988804;28;20145;-78
2023/05/08 04:08:15;;;;;;;15.38;13.52;;;;;;;;;;4986909;28;20117;-84
2023/05/08 04:10:47;;;;;;;16.42;14.48;;;;;;;;;;4990523;28;20053;-81
2023/05/08 04:13:18;;;;;;;14.90;13.27;;;;;;;;;;4987147;28;20081;-80
2023/05/08 04:15:50;;;;;;;17.58;13.68;;;;;;;;;;4979138;28;20022;-82
2023/05/08 04:18:18;;;;;;;16.02;13.85;;;;;;;;;;4987760;28;20022;-79
2023/05/08 04:20:46;;;;;;;15.68;12.70;;;;;;;;;;4992442;28;20041;-81
2023/05/08 04:23:13;;;;;;;18.10;14.75;;;;;;;;;;4989786;28;20484;-83
2023/05/08 04:25:40;;;;;;;15.40;13.90;;;;;;;;;;4991497;28;20450;-81
2023/05/08 04:28:06;;;;;;;15.38;13.60;;;;;;;;;;4974255;28;20030;-80
2023/05/08 04:30:32;;;;;;;14.95;13.00;;;;;;;;;;4989188;28;20133;-80
2023/05/08 04:32:59;;;;;;;14.60;13.10;;;;;;;;;;4988330;28;20084;-81
2023/05/08 04:35:25;;;;;;;15.35;13.27;;;;;;;;;;4989835;28;20054;-81
2023/05/08 04:37:51;;;;;;;15.68;12.80;;;;;;;;;;4990002;28;20058;-75
2023/05/08 04:40:17;;;;;;;55.17;37.63;;;;;;;;;;4985666;28;20530;-81
2023/05/08 04:42:46;;;;;;;18.52;15.52;;;;;;;;;;4968148;28;20038;-81
2023/05/08 04:45:12;;;;;;;16.67;13.77;;;;;;;;;;4994188;28;20035;-83
2023/05/08 04:47:38;;;;;;;16.25;13.63;;;;;;;;;;4995639;28;20081;-80
2023/05/08 04:50:04;;;;;;;16.92;13.27;;;;;;;;;;4985388;28;20081;-79
2023/05/08 04:52:30;;;;;;;16.83;12.93;;;;;;;;;;4988836;28;20122;-81
2023/05/08 04:54:56;;;;;;;14.57;12.82;;;;;;;;;;4982985;28;20462;-81
2023/05/08 04:57:22;;;;;;;15.15;13.27;;;;;;;;;;4987944;28;20038;-83
2023/05/08 04:59:48;;;;;;;13.07;11.52;;;;;;;;;;4986289;28;20192;-78
2023/05/08 05:02:14;;;;;;;18.08;13.15;;;;;;;;;;4989074;28;20129;-85
2023/05/08 05:04:40;;;;;;;14.40;12.80;;;;;;;;;;4981194;28;20480;-80
2023/05/08 05:07:06;;;;;;;14.75;12.38;;;;;;;;;;4979521;28;20066;-80
2023/05/08 05:09:36;;;;;;;15.15;12.45;;;;;;;;;;4983128;28;20034;-81
2023/05/08 05:12:05;;;;;;;28.85;19.83;;;;;;;;;;4968454;28;20499;-89
2023/05/08 05:14:32;;;;;;;19.35;15.05;;;;;;;;;;4987998;28;20050;-76
2023/05/08 05:16:58;;;;;;;16.58;13.73;;;;;;;;;;4967806;28;20033;-80
2023/05/08 05:19:24;;;;;;;14.07;12.63;;;;;;;;;;4983901;28;20049;-86
2023/05/08 05:21:50;;;;;;;14.25;12.40;;;;;;;;;;4979892;28;20038;-82
2023/05/08 05:24:16;;;;;;;14.20;12.70;;;;;;;;;;4979226;28;20365;-82
2023/05/08 05:26:42;;;;;;;15.43;12.50;;;;;;;;;;4984373;28;20049;-81
2023/05/08 05:29:08;;;;;;;13.57;12.18;;;;;;;;;;4986136;28;20514;-82
2023/05/08 05:31:34;;;;;;;13.48;11.32;;;;;;;;;;4986226;28;20391;-81
2023/05/08 05:34:00;;;;;;;12.68;11.35;;;;;;;;;;4983011;28;20506;-82
2023/05/08 05:36:26;;;;;;;13.13;11.60;;;;;;;;;;4985114;28;20031;-82
2023/05/08 05:38:52;;;;;;;14.13;11.95;;;;;;;;;;4965934;28;20033;-82
2023/05/08 05:41:18;;;;;;;15.05;11.65;;;;;;;;;;4971416;28;20054;-81
2023/05/08 05:43:44;;;;;;;13.48;12.05;;;;;;;;;;4988078;28;20037;-81
2023/05/08 05:46:10;;;;;;;12.85;11.48;;;;;;;;;;4989427;28;20026;-83
2023/05/08 05:48:36;;;;;;;14.23;12.15;;;;;;;;;;4988318;28;20039;-82
2023/05/08 05:51:02;;;;;;;14.38;12.07;;;;;;;;;;4991211;28;20381;-81
2023/05/08 05:53:28;;;;;;;14.80;11.75;;;;;;;;;;4972043;28;20042;-81
2023/05/08 05:55:55;;;;;;;12.80;11.43;;;;;;;;;;4983050;28;20061;-82
2023/05/08 05:58:21;;;;;;;13.00;11.25;;;;;;;;;;4990498;28;20037;-82
2023/05/08 06:00:47;;;;;;;14.57;11.43;;;;;;;;;;4989125;28;20034;-82
2023/05/08 06:03:13;;;;;;;13.90;11.25;;;;;;;;;;4973127;28;20121;-82
2023/05/08 06:05:39;;;;;;;11.77;10.60;;;;;;;;;;4989253;28;20026;-82
2023/05/08 06:08:07;;;;;;;12.10;10.90;;;;;;;;;;4979280;28;20023;-83
2023/05/08 06:10:33;;;;;;;12.02;10.73;;;;;;;;;;4988868;28;20058;-82
2023/05/08 06:12:59;;;;;;;15.00;11.30;;;;;;;;;;4989567;28;20046;-83
2023/05/08 06:15:25;;;;;;;14.55;10.63;;;;;;;;;;4986254;28;20113;-82
2023/05/08 06:17:51;;;;;;;13.25;11.27;;;;;;;;;;4986668;28;20578;-82
2023/05/08 06:20:17;;;;;;;11.93;10.68;;;;;;;;;;4986032;28;20081;-82
2023/05/08 06:22:43;;;;;;;11.35;10.15;;;;;;;;;;4980164;28;20395;-82
2023/05/08 06:25:09;;;;;;;10.50;9.43;;;;;;;;;;4971164;28;20018;-84
2023/05/08 06:27:35;;;;;;;14.85;11.35;;;;;;;;;;4988892;28;20022;-82
2023/05/08 06:30:03;;;;;;;12.18;9.65;;;;;;;;;;4988965;28;20045;-82
2023/05/08 06:32:29;;;;;;;10.95;9.85;;;;;;;;;;4982740;28;20046;-82
2023/05/08 06:34:55;;;;;;;10.90;9.65;;;;;;;;;;4973137;28;20519;-81
2023/05/08 06:37:21;;;;;;;10.18;9.18;;;;;;;;;;4988172;28;20542;-82
2023/05/08 06:39:47;;;;;;;11.40;9.57;;;;;;;;;;4988219;28;20388;-82
2023/05/08 06:42:13;;;;;;;11.32;10.23;;;;;;;;;;4988305;28;20034;-84
2023/05/08 06:44:39;;;;;;;10.85;9.70;;;;;;;;;;4990584;28;20566;-82
2023/05/08 06:47:07;;;;;;;11.52;9.63;;;;;;;;;;4982085;28;20383;-83
2023/05/08 06:49:33;;;;;;;12.02;10.05;;;;;;;;;;4987703;28;20124;-83
2023/05/08 06:51:59;;;;;;;11.00;9.95;;;;;;;;;;4989266;28;20479;-82
2023/05/08 06:54:25;;;;;;;12.90;9.75;;;;;;;;;;4987621;28;20034;-82
2023/05/08 06:56:53;;;;;;;11.73;9.85;;;;;;;;;;4990756;28;20042;-83
2023/05/08 06:59:19;;;;;;;13.27;9.20;;;;;;;;;;4987545;28;20049;-83
2023/05/08 07:01:45;;;;;;;10.20;9.15;;;;;;;;;;4987840;28;20058;-81
2023/05/08 07:04:11;;;;;;;11.25;10.15;;;;;;;;;;4976805;28;20022;-87
2023/05/08 07:06:37;;;;;;;11.07;10.00;;;;;;;;;;4987729;28;20037;-85
2023/05/08 07:09:03;;;;;;;13.77;10.15;;;;;;;;;;4986129;28;20035;-86
2023/05/08 07:11:29;;;;;;;12.35;9.45;;;;;;;;;;4988073;28;20108;-86
2023/05/08 07:13:55;;;;;;;14.82;11.18;;;;;;;;;;4987029;28;20023;-80
2023/05/08 07:16:21;;;;;;;15.45;12.48;;;;;;;;;;4992512;28;20497;-81
2023/05/08 07:18:47;;;;;;;11.77;10.07;;;;;;;;;;4991122;28;20097;-81
2023/05/08 07:21:14;;;;;;;9.80;8.80;;;;;;;;;;5007259;28;20093;-85
2023/05/08 07:23:40;;;;;;;10.65;9.63;;;;;;;;;;4989197;28;20033;-88
2023/05/08 07:26:07;;;;;;;12.30;8.93;;;;;;;;;;4993025;28;20027;-89
2023/05/08 07:28:33;;;;;;;10.73;9.73;;;;;;;;;;4990119;28;20084;-90
2023/05/08 07:30:59;;;;;;;10.35;9.05;;;;;;;;;;4994151;28;20034;-85
2023/05/08 07:33:25;;;;;;;11.77;8.80;;;;;;;;;;4991004;28;20344;-88
2023/05/08 07:35:51;;;;;;;10.25;9.25;;;;;;;;;;4978884;28;20129;-81
2023/05/08 07:38:17;;;;;;;61.42;39.97;;;;;;;;;;4989082;28;20047;-81
2023/05/08 07:40:43;;;;;;;50.15;36.35;;;;;;;;;;4988791;28;20038;-82
2023/05/08 07:43:09;;;;;;;17.30;14.70;;;;;;;;;;4993226;28;20058;-83
2023/05/08 07:45:35;;;;;;;9.98;8.98;;;;;;;;;;4985866;28;20031;-85
2023/05/08 07:48:01;;;;;;;9.93;8.95;;;;;;;;;;4975090;28;20030;-82
2023/05/08 07:50:27;;;;;;;11.40;9.35;;;;;;;;;;4971862;28;20037;-81
2023/05/08 07:52:53;;;;;;;10.32;9.05;;;;;;;;;;4988678;28;20483;-83
2023/05/08 07:55:20;;;;;;;11.52;9.02;;;;;;;;;;4988409;28;20050;-81
2023/05/08 07:57:46;;;;;;;10.40;9.35;;;;;;;;;;4971795;28;20034;-82
2023/05/08 08:00:13;;;;;;;9.65;8.65;;;;;;;;;;4972651;28;20116;-85
2023/05/08 08:02:39;;;;;;;10.68;9.68;;;;;;;;;;4995222;28;20038;-86
2023/05/08 08:05:06;;;;;;;9.82;8.77;;;;;;;;;;4968770;28;20689;-83
2023/05/08 08:07:32;;;;;;;10.10;9.18;;;;;;;;;;4986042;28;20057;-83
2023/05/08 08:10:02;;;;;;;12.27;9.45;;;;;;;;;;4986495;28;20471;-82
2023/05/08 08:12:28;;;;;;;10.15;9.15;;;;;;;;;;4981138;28;20053;-85
2023/05/08 08:14:54;;;;;;;10.20;9.13;;;;;;;;;;4981571;28;20218;-82
2023/05/08 08:17:21;;;;;;;37.97;29.80;;;;;;;;;;4974067;28;20038;-82
2023/05/08 08:19:47;;;;;;;65.45;44.60;;;;;;;;;;4994311;28;20374;-84
2023/05/08 08:22:13;;;;;;;12.50;10.73;;;;;;;;;;4988815;28;20030;-84
2023/05/08 08:24:39;;;;;;;11.93;8.60;;;;;;;;;;4967941;28;20042;-87
2023/05/08 08:27:05;;;;;;;10.13;9.13;;;;;;;;;;4991358;28;20206;-87
2023/05/08 08:29:31;;;;;;;10.88;9.15;;;;;;;;;;4987057;28;20046;-84
2023/05/08 08:31:57;;;;;;;12.30;8.18;;;;;;;;;;4967102;28;20039;-87
2023/05/08 08:34:23;;;;;;;10.27;9.27;;;;;;;;;;4949146;28;20066;-87
2023/05/08 08:36:49;;;;;;;11.60;9.48;;;;;;;;;;4985786;28;20389;-88
2023/05/08 08:39:15;;;;;;;10.95;8.88;;;;;;;;;;4991227;28;20156;-87
2023/05/08 08:41:41;;;;;;;10.68;9.27;;;;;;;;;;4990197;28;20038;-88
2023/05/08 08:44:07;;;;;;;10.50;9.25;;;;;;;;;;4982168;28;20101;-88
2023/05/08 08:46:34;;;;;;;9.38;8.45;;;;;;;;;;4992441;28;20089;-84
2023/05/08 08:49:03;;;;;;;10.32;9.05;;;;;;;;;;4987811;28;20435;-83
2023/05/08 08:51:30;;;;;;;10.27;9.27;;;;;;;;;;4989097;28;20137;-87
2023/05/08 08:54:17;;;;;;;11.52;8.88;;;;;;;;;;4988282;28;20106;-87
2023/05/08 08:56:45;;;;;;;9.23;8.38;;;;;;;;;;4989529;28;20474;-88
2023/05/08 08:59:11;;;;;;;10.02;9.05;;;;;;;;;;4988097;28;20034;-85
2023/05/08 09:01:39;;;;;;;10.18;8.65;;;;;;;;;;4993535;28;20042;-84
2023/05/08 09:04:05;;;;;;;9.80;8.77;;;;;;;;;;4988887;28;20551;-88
2023/05/08 09:06:34;;;;;;;10.85;9.77;;;;;;;;;;4988006;28;20399;-82
2023/05/08 09:09:01;;;;;;;9.60;8.57;;;;;;;;;;4985719;28;20022;-89
2023/05/08 09:11:27;;;;;;;11.55;9.02;;;;;;;;;;4983975;28;20070;-88
2023/05/08 09:13:56;;;;;;;10.50;9.07;;;;;;;;;;4988074;28;20327;-85
2023/05/08 09:16:23;;;;;;;9.27;8.45;;;;;;;;;;4981830;28;20034;-88
2023/05/08 09:18:49;;;;;;;8.73;7.82;;;;;;;;;;4988655;28;20034;-83
2023/05/08 09:21:15;;;;;;;9.70;8.80;;;;;;;;;;4985946;28;20041;-86
2023/05/08 09:24:07;;;;;;;10.25;8.48;;;;;;;;;;4990319;28;20030;-88
2023/05/08 09:26:37;;;;;;;10.65;9.50;;;;;;;;;;4982256;28;20133;-88
2023/05/08 09:29:10;;;;;;;10.50;9.15;;;;;;;;;;4987998;28;20037;-84
2023/05/08 09:31:40;;;;;;;11.73;10.52;;;;;;;;;;4996873;28;20042;-84
2023/05/08 09:34:09;;;;;;;10.70;9.02;;;;;;;;;;4990728;28;20392;-87
2023/05/08 09:36:36;;;;;;;10.70;9.45;;;;;;;;;;4987413;28;20034;-86
2023/05/08 09:39:02;;;;;;;8.95;8.05;;;;;;;;;;4972628;28;20064;-87
2023/05/08 09:41:29;;;;;;;10.63;9.52;;;;;;;;;;4982893;28;20134;-85
2023/05/08 09:44:02;;;;;;;10.90;9.85;;;;;;;;;;5006748;28;20038;-81
2023/05/08 09:46:28;;;;;;;12.65;10.07;;;;;;;;;;4997690;28;20034;-86
2023/05/08 09:48:55;;;;;;;10.63;9.55;;;;;;;;;;4990521;28;20054;-84
2023/05/08 09:51:22;;;;;;;10.90;9.82;;;;;;;;;;4973850;28;20113;-87
2023/05/08 09:53:55;;;;;;;11.52;10.43;;;;;;;;;;4973438;28;20118;-85
2023/05/08 09:56:35;;;;;;;11.75;10.55;;;;;;;;;;4991974;28;20113;-88
2023/05/08 09:59:03;;;;;;;13.63;11.63;;;;;;;;;;4984555;28;20038;-88
2023/05/08 10:01:33;;;;;;;10.63;9.52;;;;;;;;;;4982789;28;20042;-84
2023/05/08 10:03:59;;;;;;;18.95;16.67;;;;;;;;;;4983656;28;20498;-90
2023/05/08 10:06:27;;;;;;;15.20;12.18;;;;;;;;;;4990151;28;20026;-90
2023/05/08 10:09:12;;;;;;;12.15;10.95;;;;;;;;;;4965514;28;20042;-84
2023/05/08 10:11:51;;;;;;;10.75;9.65;;;;;;;;;;4984214;28;20153;-82
2023/05/08 10:14:18;;;;;;;10.65;9.07;;;;;;;;;;4984786;28;20105;-82
2023/05/08 10:16:45;;;;;;;10.93;9.77;;;;;;;;;;4979534;28;20088;-81
2023/05/08 10:19:17;;;;;;;11.32;9.43;;;;;;;;;;4981001;28;20036;-81
2023/05/08 10:21:48;;;;;;;10.20;9.30;;;;;;;;;;4979904;28;20061;-81
2023/05/08 10:24:18;;;;;;;10.77;9.77;;;;;;;;;;4969141;28;20038;-82
2023/05/08 10:26:52;;;;;;;10.27;9.38;;;;;;;;;;4966653;28;20034;-80
2023/05/08 10:29:21;;;;;;;12.32;9.55;;;;;;;;;;4982110;28;20026;-80
2023/05/08 10:31:49;;;;;;;11.98;9.73;;;;;;;;;;4977248;28;20037;-81
2023/05/08 10:34:19;;;;;;;12.25;10.18;;;;;;;;;;4982875;28;20088;-81
2023/05/08 10:36:46;;;;;;;10.63;9.45;;;;;;;;;;4968637;28;20396;-81
2023/05/08 10:39:15;;;;;;;11.25;9.55;;;;;;;;;;4978403;28;20071;-83
2023/05/08 10:41:41;;;;;;;11.13;10.07;;;;;;;;;;4979544;28;20157;-89
2023/05/08 10:44:08;;;;;;;9.90;9.00;;;;;;;;;;4987718;28;20032;-94
2023/05/08 10:46:48;;;;;;;11.43;10.25;;;;;;;;;;4986373;28;20022;-91
2023/05/08 10:49:20;;;;;;;11.05;9.95;;;;;;;;;;4987913;28;20026;-91
2023/05/08 10:51:56;;;;;;;10.38;9.38;;;;;;;;;;4985331;28;20058;-88
2023/05/08 10:54:36;;;;;;;10.48;9.43;;;;;;;;;;4977266;28;20045;-93
2023/05/08 10:57:09;;;;;;;9.60;8.73;;;;;;;;;;4993096;28;20014;-91
2023/05/08 10:59:39;;;;;;;10.48;9.48;;;;;;;;;;5011476;28;20027;-87
2023/05/08 11:02:05;;;;;;;10.25;8.80;;;;;;;;;;4979303;28;20396;-91
2023/05/08 11:04:32;;;;;;;10.23;8.90;;;;;;;;;;4969289;28;20056;-91
2023/05/08 11:06:58;;;;;;;10.02;8.77;;;;;;;;;;4988163;28;20057;-89
2023/05/08 11:09:28;;;;;;;11.38;10.18;;;;;;;;;;4985848;28;20022;-80
2023/05/08 11:12:05;;;;;;;11.35;10.25;;;;;;;;;;4992036;28;20046;-83
2023/05/08 11:14:33;;;;;;;40.90;28.33;;;;;;;;;;4991046;28;20210;-80
2023/05/08 11:16:59;;;;;;;10.25;9.15;;;;;;;;;;4985203;28;20046;-80
2023/05/08 11:19:25;;;;;;;11.10;10.00;;;;;;;;;;4975651;28;20030;-86
2023/05/08 11:22:10;;;;;;;11.15;9.88;;;;;;;;;;4990079;28;20027;-88
2023/05/08 11:24:37;;;;;;;14.55;11.60;;;;;;;;;;4985621;28;20357;-88
2023/05/08 11:27:03;;;;;;;12.40;10.13;;;;;;;;;;4986671;28;20034;-90
2023/05/08 11:29:29;;;;;;;12.77;11.50;;;;;;;;;;4990184;28;20034;-85
2023/05/08 11:31:55;;;;;;;13.20;11.80;;;;;;;;;;4988733;28;20050;-91
2023/05/08 11:34:40;;;;;;;13.57;12.27;;;;;;;;;;4992196;28;20076;-91
2023/05/08 11:37:09;;;;;;;12.05;10.85;;;;;;;;;;4968997;28;20125;-90
2023/05/08 11:39:35;;;;;;;11.73;10.63;;;;;;;;;;4992123;28;20026;-89
2023/05/08 11:42:26;;;;;;;11.75;10.60;;;25.10;99.90;;;;;;4972486;28;20738;-92
2023/05/08 11:45:07;;;;;;;13.40;11.10;;;;;;;;;;4989133;28;20379;-93
2023/05/08 11:47:37;;;;;;;12.57;11.32;;;;;;;;;;4962361;28;20085;-94
2023/05/08 11:50:03;;;;;;;12.23;10.57;;;;;;;;;;4988568;28;20038;-92
2023/05/08 11:52:36;;;;;;;11.98;10.88;;;;;;;;;;4973059;28;20105;-93
2023/05/08 11:55:03;;;;;;;12.75;11.55;;;;;;;;;;4975663;28;20081;-90
2023/05/08 11:57:31;;;;;;;13.32;11.93;;;;;;;;;;4965192;28;20045;-91
2023/05/08 11:59:57;;;;;;;12.15;10.95;;;;;;;;;;4989038;28;20026;-90
2023/05/08 12:02:39;;;;;;;13.43;12.13;;;;;;;;;;4979384;28;20038;-91
2023/05/08 12:05:06;;;;;;;13.07;10.70;;;;;;;;;;4987873;28;20034;-91
2023/05/08 12:07:32;;;;;;;15.48;12.05;;;;;;;;;;4959226;28;20034;-90
2023/05/08 12:10:00;;;;;;;13.88;12.48;;;;;;;;;;4968440;28;20177;-91
2023/05/08 12:12:39;;;;;;;12.23;11.07;;;;;;;;;;4989260;28;20118;-91
2023/05/08 12:15:06;;;;;;;14.95;11.68;;;;;;;;;;4973458;28;20113;-92
2023/05/08 12:17:32;;;;;;;12.00;10.88;;;;;;;;;;4986274;28;20027;-93
2023/05/08 12:20:12;;;;;;;14.68;10.45;;;;;;;;;;4973669;28;20044;-91
2023/05/08 12:22:39;;;;;;;14.25;11.98;;;;;;;;;;4983739;28;20042;-91
2023/05/08 12:25:06;;;;;;;12.82;11.50;;;;;;;;;;4983979;28;20038;-91
2023/05/08 12:27:32;;;;;;;14.43;12.13;;;;;;;;;;4957400;28;20118;-89
2023/05/08 12:29:58;;;;;;;13.27;11.95;;;;;;;;;;4985878;28;20034;-91
2023/05/08 12:32:24;;;;;;;14.63;12.73;;;;;;;;;;4991726;28;20046;-91
2023/05/08 12:34:51;;;;;;;14.23;12.93;;;;;;;;;;4970434;28;20070;-91
2023/05/08 12:37:27;;;;;;;15.00;12.80;;;;;;;;;;4954986;28;20070;-87
2023/05/08 12:39:53;;;;;;;15.90;13.63;;;;;;;;;;4968554;28;20481;-90
2023/05/08 12:42:19;;;;;;;14.68;12.30;;;;;;;;;;4968544;28;20169;-86
2023/05/08 12:44:52;;;;;;;13.02;11.73;;;;;;;;;;4986300;28;20062;-87
2023/05/08 12:47:19;;;;;;;17.00;13.75;;;;;;;;;;4991966;28;20022;-92
2023/05/08 12:49:48;;;;;;;17.95;15.73;;;;;;;;;;4969513;28;20023;-90
2023/05/08 12:52:14;;;;;;;15.80;14.15;;;;;;;;;;4970621;28;20031;-89
2023/05/08 12:54:45;;;;;;;17.77;15.77;;;;;;;;;;4968077;28;20109;-90
2023/05/08 12:57:12;;;;;;;16.55;14.88;;;;;;;;;;4961137;28;20027;-80
2023/05/08 12:59:40;;;;;;;17.15;15.18;;;;;;;;;;4964129;28;20058;-89
2023/05/08 13:02:21;;;;;;;18.38;16.45;;;;;;;;;;4961339;28;20055;-86
2023/05/08 13:04:47;;;;;;;17.83;16.02;;;;;;;;;;4968655;28;20027;-88
2023/05/08 13:07:13;;;;;;;17.67;16.08;;;;;;;;;;4950140;28;20031;-87
2023/05/08 13:09:39;;;;;;;16.85;15.13;;;;;;;;;;4949319;28;21594;-84
2023/05/08 13:12:05;;;;;;;18.20;16.33;;;;;;;;;;4963800;28;20050;-83
2023/05/08 13:14:31;;;;;;;19.58;17.67;;;;;;;;;;4953304;28;20019;-83
2023/05/08 13:16:58;;;;;;;22.85;16.23;;;;;;;;;;4973524;28;20074;-84
2023/05/08 13:19:26;;;;;;;17.98;15.45;;;;;;;;;;4951827;28;20039;-84
2023/05/08 13:21:52;;;;;;;18.42;15.73;;;;;;;;;;4953579;28;20403;-82
2023/05/08 13:24:18;;;;;;;19.38;16.67;;;;;;;;;;4963828;28;20031;-82
2023/05/08 13:26:44;;;;;;;18.40;16.67;;;;;;;;;;4947064;28;20117;-83
2023/05/08 13:29:10;;;;;;;19.05;17.05;;;;;;;;;;4936396;28;20045;-83
2023/05/08 13:31:36;;;;;;;20.65;17.40;;;;;;;;;;4957334;28;20429;-84
2023/05/08 13:34:03;;;;;;;19.88;16.52;;;;;;;;;;4943644;28;20035;-82
2023/05/08 13:36:29;;;;;;;16.83;15.02;;;;;;;;;;4981483;28;20078;-82
2023/05/08 13:38:56;;;;;;;17.52;15.75;;;;;;;;;;4982523;28;20435;-85
2023/05/08 13:41:22;;;;;;;17.58;15.77;;;;;;;;;;4976630;28;20137;-84
2023/05/08 13:43:48;;;;;;;18.15;16.35;;;;;;;;;;4977497;28;20565;-84
2023/05/08 13:46:14;;;;;;;19.42;17.52;;;;;;;;;;4983862;28;20058;-89
2023/05/08 13:48:40;;;;;;;17.13;15.43;;;;;;;;;;4966612;28;20030;-86
2023/05/08 13:51:06;;;;;;;18.42;16.63;;;;;;;;;;4979996;28;20469;-82
2023/05/08 13:53:32;;;;;;;20.13;16.52;;;;;;;;;;4987241;28;20479;-83
2023/05/08 13:55:58;;;;;;;17.67;15.77;;;;;;;;;;4983182;28;20043;-82
2023/05/08 13:58:24;;;;;;;19.65;17.65;;;;;;;;;;4969756;28;20035;-87
2023/05/08 14:00:50;;;;;;;18.75;16.92;;;;;;;;;;4964683;28;20567;-85
2023/05/08 14:03:16;;;;;;;46.15;40.25;;;;;;;;;;4981348;28;20498;-87
2023/05/08 14:05:42;;;;;;;23.35;20.83;;;;;;;;;;4978987;28;20530;-86
2023/05/08 14:08:10;;;;;;;21.80;18.30;;;;;;;;;;4979738;28;20059;-84
2023/05/08 14:10:36;;;;;;;19.52;17.52;;;;;;;;;;4978857;28;20042;-86
2023/05/08 14:13:02;;;;;;;20.05;17.30;;;;;;;;;;4965841;28;20096;-87
2023/05/08 14:15:28;;;;;;;20.70;18.60;;;;;;;;;;4982189;28;20026;-82
2023/05/08 14:17:54;;;;;;;20.85;18.85;;;;;;;;;;4982925;28;21858;-83
2023/05/08 14:20:20;;;;;;;22.00;19.63;;;;;;;;;;4971070;28;20643;-85
2023/05/08 14:22:46;;;;;;;22.90;18.98;;;;;;;;;;4984873;28;20297;-86
2023/05/08 14:25:12;;;;;;;21.27;19.02;;;;;;;;;;4987231;28;20030;-82
2023/05/08 14:27:38;;;;;;;23.83;21.50;;;;;;;;;;4983024;28;20026;-83